createdAt,value
2018-08-20T00:01:39.923Z,13.20
2018-08-20T00:04:14.837Z,13.70
2018-08-20T00:06:54.018Z,13.60
2018-08-20T00:09:36.243Z,11.10
2018-08-20T00:12:11.296Z,13.73
2018-08-20T00:14:46.291Z,12.77
2018-08-20T00:17:21.284Z,14.33
2018-08-20T00:19:56.259Z,12.83
2018-08-20T00:22:31.127Z,14.30
2018-08-20T00:25:16.684Z,12.20
2018-08-20T00:27:51.452Z,13.37
2018-08-20T00:30:26.524Z,12.70
2018-08-20T00:33:01.401Z,12.50
2018-08-20T00:35:36.646Z,14.47
2018-08-20T00:38:11.579Z,14.37
2018-08-20T00:40:46.767Z,12.70
2018-08-20T00:43:21.659Z,13.60
2018-08-20T00:45:56.636Z,12.70
2018-08-20T00:48:31.300Z,14.00
2018-08-20T00:51:06.346Z,12.57
2018-08-20T00:53:41.068Z,12.17
2018-08-20T00:56:16.191Z,13.60
2018-08-20T00:58:51.011Z,12.17
2018-08-20T01:01:25.844Z,12.50
2018-08-20T01:04:01.228Z,11.60
2018-08-20T01:06:36.154Z,11.53
2018-08-20T01:09:11.304Z,13.20
2018-08-20T01:11:46.084Z,11.33
2018-08-20T01:14:20.786Z,11.40
2018-08-20T01:16:55.746Z,10.40
2018-08-20T01:19:30.600Z,10.47
2018-08-20T01:22:05.732Z,10.70
2018-08-20T01:24:40.380Z,11.27
2018-08-20T01:27:20.399Z,10.07
2018-08-20T01:29:55.480Z,8.43
2018-08-20T01:32:30.500Z,10.33
2018-08-20T01:35:18.640Z,9.47
2018-08-20T01:37:53.677Z,9.90
2018-08-20T01:40:28.403Z,9.97
2018-08-20T01:43:03.159Z,10.50
2018-08-20T01:45:38.036Z,10.53
2018-08-20T01:48:12.747Z,10.37
2018-08-20T01:50:47.378Z,10.67
2018-08-20T01:53:22.176Z,11.03
2018-08-20T01:55:57.055Z,10.00
2018-08-20T01:58:31.787Z,10.40
2018-08-20T02:01:06.525Z,12.37
2018-08-20T02:03:41.396Z,12.47
2018-08-20T02:06:16.300Z,13.33
2018-08-20T02:08:51.437Z,12.80
2018-08-20T02:11:26.477Z,14.33
2018-08-20T02:14:01.264Z,12.13
2018-08-20T02:16:36.100Z,15.03
2018-08-20T02:19:11.382Z,14.70
2018-08-20T02:21:46.126Z,15.53
2018-08-20T02:24:20.980Z,16.60
2018-08-20T02:26:55.908Z,15.60
2018-08-20T02:29:30.847Z,13.90
2018-08-20T02:32:05.965Z,15.87
2018-08-20T02:34:40.845Z,15.93
2018-08-20T02:37:15.984Z,15.07
2018-08-20T02:39:50.752Z,16.47
2018-08-20T02:42:25.521Z,15.90
2018-08-20T02:45:00.435Z,16.27
2018-08-20T02:47:35.649Z,16.33
2018-08-20T02:50:11.071Z,15.70
2018-08-20T02:52:46.164Z,16.40
2018-08-20T02:55:21.084Z,16.97
2018-08-20T02:57:55.849Z,17.20
2018-08-20T03:00:30.711Z,15.97
2018-08-20T03:03:05.517Z,14.07
2018-08-20T03:05:40.688Z,14.60
2018-08-20T03:08:15.315Z,14.27
2018-08-20T03:10:50.121Z,14.17
2018-08-20T03:13:24.908Z,12.63
2018-08-20T03:16:00.046Z,12.93
2018-08-20T03:18:34.977Z,12.13
2018-08-20T03:21:09.953Z,11.90
2018-08-20T03:23:45.047Z,12.20
2018-08-20T03:26:19.917Z,12.30
2018-08-20T03:28:55.084Z,11.90
2018-08-20T03:31:30.456Z,13.33
2018-08-20T03:34:05.723Z,12.13
2018-08-20T03:36:40.564Z,12.10
2018-08-20T03:39:15.338Z,13.17
2018-08-20T03:41:50.634Z,13.57
2018-08-20T03:44:25.559Z,14.00
2018-08-20T03:47:00.506Z,12.90
2018-08-20T03:49:35.424Z,13.20
2018-08-20T03:52:10.428Z,13.20
2018-08-20T03:54:45.237Z,12.83
2018-08-20T03:57:20.065Z,13.17
2018-08-20T03:59:54.949Z,13.27
2018-08-20T04:02:30.068Z,13.43
2018-08-20T04:05:05.490Z,13.57
2018-08-20T04:07:40.543Z,15.80
2018-08-20T04:10:15.253Z,14.90
2018-08-20T04:12:50.007Z,13.20
2018-08-20T04:15:25.012Z,12.23
2018-08-20T04:17:59.689Z,13.50
2018-08-20T04:20:34.756Z,13.10
2018-08-20T04:23:09.800Z,10.53
2018-08-20T04:25:44.719Z,11.50
2018-08-20T04:28:19.479Z,10.70
2018-08-20T04:30:54.453Z,9.60
2018-08-20T04:33:29.476Z,10.60
2018-08-20T04:36:04.240Z,8.90
2018-08-20T04:38:39.093Z,9.33
2018-08-20T04:41:13.752Z,9.23
2018-08-20T04:43:48.438Z,10.23
2018-08-20T04:46:23.504Z,9.67
2018-08-20T04:48:58.476Z,8.70
2018-08-20T04:51:33.561Z,8.07
2018-08-20T04:54:08.486Z,9.30
2018-08-20T04:56:43.265Z,10.10
2018-08-20T04:59:18.069Z,8.07
2018-08-20T05:01:52.911Z,7.93
2018-08-20T05:04:27.797Z,9.00
2018-08-20T05:07:02.704Z,7.60
2018-08-20T05:09:37.899Z,7.80
2018-08-20T05:12:12.896Z,8.17
2018-08-20T05:14:47.753Z,7.23
2018-08-20T05:17:22.592Z,8.60
2018-08-20T05:19:57.692Z,7.20
2018-08-20T05:22:32.524Z,7.60
2018-08-20T05:25:07.684Z,7.83
2018-08-20T05:27:42.508Z,6.60
2018-08-20T05:30:17.521Z,7.50
2018-08-20T05:32:52.625Z,6.73
2018-08-20T05:35:27.868Z,6.37
2018-08-20T05:38:02.549Z,5.80
2018-08-20T05:40:37.289Z,5.37
2018-08-20T05:43:12.008Z,5.10
2018-08-20T05:45:46.949Z,5.80
2018-08-20T05:48:21.824Z,4.87
2018-08-20T05:50:56.672Z,4.37
2018-08-20T05:53:31.654Z,5.57
2018-08-20T05:56:06.672Z,3.63
2018-08-20T05:58:41.562Z,4.50
2018-08-20T06:01:16.631Z,3.77
2018-08-20T06:03:51.465Z,3.37
2018-08-20T06:06:26.573Z,4.13
2018-08-20T06:09:01.284Z,3.10
2018-08-20T06:11:36.382Z,3.30
2018-08-20T06:14:11.202Z,3.90
2018-08-20T06:16:46.165Z,2.93
2018-08-20T06:19:20.914Z,3.00
2018-08-20T06:21:55.794Z,3.27
2018-08-20T06:24:30.644Z,2.80
2018-08-20T06:27:05.702Z,2.90
2018-08-20T06:29:40.740Z,2.80
2018-08-20T06:32:15.992Z,2.73
2018-08-20T06:34:50.613Z,2.70
2018-08-20T06:37:25.488Z,2.33
2018-08-20T06:40:00.232Z,3.03
2018-08-20T06:42:35.186Z,2.37
2018-08-20T06:45:16.952Z,3.27
2018-08-20T06:47:51.891Z,2.83
2018-08-20T06:50:26.840Z,3.07
2018-08-20T06:53:01.520Z,3.17
2018-08-20T06:55:36.804Z,2.43
2018-08-20T06:58:11.573Z,3.00
2018-08-20T07:00:46.421Z,2.10
2018-08-20T07:03:21.384Z,2.17
2018-08-20T07:05:56.165Z,1.90
2018-08-20T07:08:31.555Z,2.20
2018-08-20T07:11:06.341Z,1.90
2018-08-20T07:13:41.236Z,1.93
2018-08-20T07:16:17.629Z,1.80
2018-08-20T07:18:53.520Z,1.70
2018-08-20T07:21:28.285Z,2.00
2018-08-20T07:24:03.390Z,1.63
2018-08-20T07:26:38.005Z,1.90
2018-08-20T07:29:12.927Z,1.70
2018-08-20T07:31:47.747Z,1.40
2018-08-20T07:34:22.798Z,1.80
2018-08-20T07:36:57.712Z,1.30
2018-08-20T07:39:32.708Z,2.73
2018-08-20T07:42:07.616Z,1.60
2018-08-20T07:44:43.624Z,1.60
2018-08-20T07:47:18.872Z,1.90
2018-08-20T07:49:53.990Z,1.73
2018-08-20T07:52:28.941Z,1.80
2018-08-20T07:55:03.776Z,1.73
2018-08-20T07:57:38.908Z,1.43
2018-08-20T08:00:13.683Z,1.30
2018-08-20T08:02:48.674Z,1.40
2018-08-20T08:05:23.576Z,1.60
2018-08-20T08:07:58.508Z,1.70
2018-08-20T08:10:33.596Z,1.77
2018-08-20T08:13:08.353Z,2.40
2018-08-20T08:15:43.185Z,1.57
2018-08-20T08:18:18.031Z,1.53
2018-08-20T08:20:53.299Z,1.40
2018-08-20T08:23:28.161Z,1.60
2018-08-20T08:26:03.077Z,1.50
2018-08-20T08:28:38.112Z,1.30
2018-08-20T08:31:13.178Z,1.67
2018-08-20T08:33:48.073Z,1.40
2018-08-20T08:36:23.510Z,1.37
2018-08-20T08:38:58.457Z,1.10
2018-08-20T08:41:33.451Z,1.57
2018-08-20T08:44:08.533Z,1.10
2018-08-20T08:46:43.321Z,1.93
2018-08-20T08:49:18.613Z,1.40
2018-08-20T08:51:53.445Z,1.20
2018-08-20T08:54:28.113Z,1.10
2018-08-20T08:57:03.136Z,1.00
2018-08-20T08:59:38.469Z,1.17
2018-08-20T09:02:13.720Z,1.17
2018-08-20T09:04:48.438Z,1.10
2018-08-20T09:07:23.533Z,1.20
2018-08-20T09:09:58.764Z,1.57
2018-08-20T09:12:33.835Z,1.17
2018-08-20T09:15:10.880Z,1.77
2018-08-20T09:17:46.200Z,1.50
2018-08-20T09:20:21.068Z,1.40
2018-08-20T09:22:56.347Z,1.80
2018-08-20T09:25:31.318Z,1.50
2018-08-20T09:28:06.457Z,1.60
2018-08-20T09:30:41.425Z,1.80
2018-08-20T09:33:16.204Z,1.50
2018-08-20T09:35:51.048Z,1.30
2018-08-20T09:38:25.945Z,1.50
2018-08-20T09:41:00.780Z,1.87
2018-08-20T09:43:35.516Z,1.20
2018-08-20T09:46:10.180Z,1.40
2018-08-20T09:48:45.002Z,2.10
2018-08-20T09:51:20.008Z,1.63
2018-08-20T09:53:54.858Z,1.93
2018-08-20T09:56:29.779Z,2.27
2018-08-20T09:59:04.726Z,1.80
2018-08-20T10:01:39.659Z,1.97
2018-08-20T10:04:14.512Z,2.90
2018-08-20T10:06:49.238Z,1.73
2018-08-20T10:09:24.253Z,1.67
2018-08-20T10:11:59.040Z,1.90
2018-08-20T10:14:34.032Z,1.80
2018-08-20T10:17:09.033Z,2.20
2018-08-20T10:19:43.924Z,2.50
2018-08-20T10:22:18.991Z,1.70
2018-08-20T10:24:54.169Z,1.50
2018-08-20T10:27:29.237Z,2.30
2018-08-20T10:30:04.967Z,1.57
2018-08-20T10:32:39.819Z,1.63
2018-08-20T10:35:14.622Z,5.03
2018-08-20T10:37:49.699Z,1.67
2018-08-20T10:40:24.625Z,1.50
2018-08-20T10:42:59.567Z,2.00
2018-08-20T10:45:39.710Z,2.40
2018-08-20T10:48:14.481Z,2.57
2018-08-20T10:50:49.505Z,2.00
2018-08-20T10:53:24.274Z,1.73
2018-08-20T10:55:59.024Z,2.10
2018-08-20T10:58:34.018Z,2.67
2018-08-20T11:01:08.657Z,2.50
2018-08-20T11:03:47.459Z,1.60
2018-08-20T11:06:22.296Z,1.70
2018-08-20T11:08:57.484Z,2.03
2018-08-20T11:11:32.418Z,2.00
2018-08-20T11:14:07.374Z,1.83
2018-08-20T11:16:42.408Z,2.33
2018-08-20T11:19:17.448Z,1.77
2018-08-20T11:21:52.363Z,1.70
2018-08-20T11:24:27.037Z,1.87
2018-08-20T11:27:02.213Z,2.33
2018-08-20T11:29:36.926Z,2.10
2018-08-20T11:32:12.199Z,1.87
2018-08-20T11:34:47.149Z,2.40
2018-08-20T11:37:22.080Z,1.57
2018-08-20T11:39:57.113Z,2.13
2018-08-20T11:42:32.440Z,2.33
2018-08-20T11:45:09.676Z,2.23
2018-08-20T11:47:44.973Z,1.50
2018-08-20T11:50:19.956Z,1.80
2018-08-20T11:52:54.799Z,2.23
2018-08-20T11:55:29.892Z,1.50
2018-08-20T11:58:08.283Z,1.57
2018-08-20T12:00:43.365Z,1.77
2018-08-20T12:03:25.165Z,1.70
2018-08-20T12:06:00.172Z,1.63
2018-08-20T12:08:34.943Z,1.77
2018-08-20T12:11:09.968Z,1.30
2018-08-20T12:13:45.158Z,1.53
2018-08-20T12:16:20.067Z,1.93
2018-08-20T12:19:01.568Z,1.60
2018-08-20T12:21:36.760Z,2.07
2018-08-20T12:24:11.789Z,1.60
2018-08-20T12:26:46.890Z,1.10
2018-08-20T12:29:21.917Z,4.20
2018-08-20T12:31:57.884Z,2.90
2018-08-20T12:34:33.814Z,1.40
2018-08-20T12:37:09.768Z,1.90
2018-08-20T12:39:45.518Z,1.60
2018-08-20T12:42:21.245Z,1.63
2018-08-20T12:44:57.133Z,2.13
2018-08-20T12:47:33.508Z,1.67
2018-08-20T12:50:09.459Z,1.53
2018-08-20T12:52:45.365Z,1.80
2018-08-20T12:55:21.409Z,1.40
2018-08-20T12:57:57.307Z,1.03
2018-08-20T13:00:33.419Z,2.00
2018-08-20T13:03:09.581Z,1.90
2018-08-20T13:05:45.707Z,2.00
2018-08-20T13:08:21.813Z,1.70
2018-08-20T13:10:58.004Z,1.80
2018-08-20T13:13:33.160Z,1.90
2018-08-20T13:16:09.948Z,6.97
2018-08-20T13:18:46.272Z,28.30
2018-08-20T13:21:21.795Z,3.70
2018-08-20T13:23:56.925Z,1.60
2018-08-20T13:26:31.883Z,7.87
2018-08-20T13:29:07.228Z,3.20
2018-08-20T13:31:47.430Z,6.33
2018-08-20T13:34:23.003Z,1.40
2018-08-20T13:36:59.381Z,1.53
2018-08-20T13:39:35.446Z,1.50
2018-08-20T13:42:11.589Z,1.60
2018-08-20T13:44:47.586Z,1.97
2018-08-20T13:47:23.735Z,1.53
2018-08-20T13:50:03.747Z,1.77
2018-08-20T13:52:40.195Z,2.20
2018-08-20T13:55:16.393Z,2.00
2018-08-20T13:57:52.927Z,2.17
2018-08-20T14:00:29.107Z,1.80
2018-08-20T14:03:05.022Z,2.30
2018-08-20T14:05:41.087Z,2.40
2018-08-20T14:08:16.720Z,2.63
2018-08-20T14:10:52.708Z,1.30
2018-08-20T14:13:27.892Z,2.40
2018-08-20T14:16:02.966Z,1.83
2018-08-20T14:18:38.301Z,1.83
2018-08-20T14:21:15.748Z,1.50
2018-08-20T14:23:50.918Z,2.17
2018-08-20T14:26:26.026Z,1.50
2018-08-20T14:29:02.537Z,1.70
2018-08-20T14:31:38.713Z,1.53
2018-08-20T14:34:14.420Z,1.93
2018-08-20T14:36:50.675Z,1.47
2018-08-20T14:39:26.884Z,2.93
2018-08-20T14:42:01.698Z,2.73
2018-08-20T14:44:36.643Z,1.60
2018-08-20T14:47:12.048Z,1.40
2018-08-20T14:49:47.293Z,3.07
2018-08-20T14:52:22.181Z,3.70
2018-08-20T14:54:57.577Z,2.53
2018-08-20T14:57:32.721Z,3.90
2018-08-20T15:00:10.209Z,1.53
2018-08-20T15:02:45.348Z,1.70
2018-08-20T15:05:20.419Z,2.13
2018-08-20T15:07:55.583Z,1.50
2018-08-20T15:10:31.218Z,1.83
2018-08-20T15:13:06.652Z,1.30
2018-08-20T15:15:41.753Z,1.97
2018-08-20T15:18:16.523Z,2.60
2018-08-20T15:20:51.229Z,5.00
2018-08-20T15:23:32.814Z,2.20
2018-08-20T15:26:07.675Z,1.60
2018-08-20T15:28:42.529Z,3.60
2018-08-20T15:31:17.360Z,2.80
2018-08-20T15:33:52.345Z,3.77
2018-08-20T15:36:27.548Z,4.53
2018-08-20T15:39:02.576Z,2.10
2018-08-20T15:41:37.889Z,1.40
2018-08-20T15:44:12.821Z,1.63
2018-08-20T15:46:48.029Z,1.50
2018-08-20T15:49:23.037Z,1.70
2018-08-20T15:51:58.990Z,1.40
2018-08-20T15:54:33.961Z,1.80
2018-08-20T15:57:09.186Z,1.70
2018-08-20T15:59:45.215Z,1.77
2018-08-20T16:02:21.222Z,1.40
2018-08-20T16:04:57.792Z,1.30
2018-08-20T16:07:34.319Z,1.50
2018-08-20T16:10:12.997Z,1.47
2018-08-20T16:12:48.899Z,1.47
2018-08-20T16:15:24.122Z,1.73
2018-08-20T16:17:58.990Z,1.67
2018-08-20T16:20:34.049Z,1.60
2018-08-20T16:23:08.885Z,1.70
2018-08-20T16:25:44.088Z,1.33
2018-08-20T16:28:19.035Z,2.23
2018-08-20T16:30:53.768Z,1.40
2018-08-20T16:33:28.848Z,1.70
2018-08-20T16:36:03.771Z,1.67
2018-08-20T16:38:38.730Z,1.30
2018-08-20T16:41:13.515Z,1.50
2018-08-20T16:43:48.594Z,1.87
2018-08-20T16:46:23.379Z,1.30
2018-08-20T16:48:58.132Z,1.83
2018-08-20T16:51:33.314Z,1.50
2018-08-20T16:54:08.917Z,1.70
2018-08-20T16:56:43.929Z,1.40
2018-08-20T16:59:18.722Z,2.07
2018-08-20T17:01:53.956Z,2.07
2018-08-20T17:04:39.761Z,1.40
2018-08-20T17:07:14.639Z,1.50
2018-08-20T17:09:49.677Z,1.40
2018-08-20T17:12:24.502Z,1.60
2018-08-20T17:14:59.761Z,1.40
2018-08-20T17:17:34.788Z,1.20
2018-08-20T17:20:11.308Z,1.57
2018-08-20T17:22:46.198Z,1.97
2018-08-20T17:25:21.924Z,1.40
2018-08-20T17:28:02.789Z,1.13
2018-08-20T17:30:38.049Z,1.77
2018-08-20T17:33:13.028Z,1.10
2018-08-20T17:35:48.059Z,1.80
2018-08-20T17:38:23.109Z,1.40
2018-08-20T17:40:57.908Z,1.40
2018-08-20T17:43:32.777Z,1.63
2018-08-20T17:46:08.321Z,1.60
2018-08-20T17:48:43.090Z,1.40
2018-08-20T17:51:17.993Z,1.43
2018-08-20T17:53:54.581Z,1.83
2018-08-20T17:56:29.624Z,2.40
2018-08-20T17:59:10.632Z,1.47
2018-08-20T18:01:45.489Z,1.77
2018-08-20T18:04:20.465Z,1.30
2018-08-20T18:06:56.048Z,1.40
2018-08-20T18:09:30.990Z,2.07
2018-08-20T18:12:05.920Z,1.67
2018-08-20T18:14:40.760Z,1.83
2018-08-20T18:17:15.626Z,2.10
2018-08-20T18:19:50.405Z,1.70
2018-08-20T18:22:25.196Z,1.10
2018-08-20T18:25:00.020Z,1.70
2018-08-20T18:27:40.445Z,1.30
2018-08-20T18:30:17.499Z,1.27
2018-08-20T18:32:52.548Z,1.30
2018-08-20T18:35:33.369Z,1.40
2018-08-20T18:38:08.504Z,1.63
2018-08-20T18:40:43.545Z,1.20
2018-08-20T18:43:18.532Z,1.33
2018-08-20T18:45:53.885Z,1.57
2018-08-20T18:48:33.618Z,2.00
2018-08-20T18:51:10.888Z,1.40
2018-08-20T18:53:45.664Z,1.90
2018-08-20T18:56:20.413Z,1.50
2018-08-20T18:58:55.219Z,1.47
2018-08-20T19:01:30.212Z,1.23
2018-08-20T19:04:05.180Z,1.57
2018-08-20T19:06:39.948Z,1.60
2018-08-20T19:09:14.694Z,1.60
2018-08-20T19:11:49.641Z,1.80
2018-08-20T19:14:24.642Z,1.53
2018-08-20T19:16:59.726Z,1.40
2018-08-20T19:19:39.289Z,2.53
2018-08-20T19:22:19.108Z,1.67
2018-08-20T19:24:53.933Z,1.80
2018-08-20T19:27:30.242Z,1.67
2018-08-20T19:30:14.781Z,1.80
2018-08-20T19:32:50.211Z,1.47
2018-08-20T19:35:25.373Z,1.80
2018-08-20T19:38:00.316Z,2.00
2018-08-20T19:40:35.182Z,1.67
2018-08-20T19:43:10.081Z,1.77
2018-08-20T19:45:45.598Z,2.10
2018-08-20T19:48:20.789Z,2.17
2018-08-20T19:50:56.452Z,2.00
2018-08-20T19:53:31.367Z,1.60
2018-08-20T19:56:11.385Z,2.27
2018-08-20T19:58:46.121Z,1.97
2018-08-20T20:01:21.006Z,1.80
2018-08-20T20:03:55.917Z,1.90
2018-08-20T20:06:30.726Z,2.00
2018-08-20T20:09:08.684Z,2.17
2018-08-20T20:11:47.953Z,2.30
2018-08-20T20:14:22.800Z,2.50
2018-08-20T20:16:57.635Z,2.42
2018-08-20T20:19:32.758Z,2.00
2018-08-20T20:22:14.313Z,1.90
2018-08-20T20:24:49.633Z,2.00
2018-08-20T20:27:24.457Z,2.03
2018-08-20T20:29:59.238Z,1.85
2018-08-20T20:32:34.132Z,1.60
2018-08-20T20:35:09.900Z,2.00
2018-08-20T20:37:44.871Z,2.13
2018-08-20T20:40:19.570Z,1.70
2018-08-20T20:42:54.425Z,2.20
2018-08-20T20:45:29.545Z,2.07
2018-08-20T20:48:04.791Z,1.90
2018-08-20T20:50:40.003Z,2.10
2018-08-20T20:53:14.880Z,2.73
2018-08-20T20:55:49.825Z,1.50
2018-08-20T20:58:29.542Z,2.07
2018-08-20T21:01:06.297Z,1.70
2018-08-20T21:03:41.217Z,2.57
2018-08-20T21:06:15.941Z,1.60
2018-08-20T21:08:51.514Z,1.87
2018-08-20T21:11:26.736Z,1.70
2018-08-20T21:14:01.489Z,2.35
2018-08-20T21:16:36.740Z,1.90
2018-08-20T21:19:11.570Z,2.60
2018-08-20T21:21:46.328Z,2.47
2018-08-20T21:24:21.320Z,2.07
2018-08-20T21:26:56.165Z,1.77
2018-08-20T21:29:31.997Z,1.90
2018-08-20T21:32:07.029Z,2.30
2018-08-20T21:34:42.667Z,2.10
2018-08-20T21:37:17.585Z,2.73
2018-08-20T21:39:52.961Z,1.83
2018-08-20T21:42:32.935Z,2.43
2018-08-20T21:45:07.997Z,2.60
2018-08-20T21:47:42.856Z,2.00
2018-08-20T21:50:17.663Z,2.43
2018-08-20T21:52:52.555Z,2.10
2018-08-20T21:55:27.452Z,2.47
2018-08-20T21:58:02.274Z,1.97
2018-08-20T22:00:37.692Z,2.10
2018-08-20T22:03:12.546Z,4.00
2018-08-20T22:05:47.556Z,2.50
2018-08-20T22:08:22.568Z,1.80
2018-08-20T22:10:57.513Z,2.50
2018-08-20T22:13:32.246Z,2.43
2018-08-20T22:16:25.067Z,2.50
2018-08-20T22:19:00.215Z,2.30
2018-08-20T22:21:35.032Z,2.53
2018-08-20T22:24:10.013Z,1.90
2018-08-20T22:26:49.892Z,2.07
2018-08-20T22:29:26.158Z,2.30
2018-08-20T22:32:00.937Z,2.57
2018-08-20T22:34:35.805Z,3.25
2018-08-20T22:37:10.849Z,2.72
2018-08-20T22:39:53.209Z,2.13
2018-08-20T22:42:43.135Z,2.58
2018-08-20T22:45:19.181Z,2.40
2018-08-20T22:47:54.146Z,2.12
2018-08-20T22:50:29.238Z,2.30
2018-08-20T22:53:04.008Z,3.00
2018-08-20T22:55:44.849Z,2.75
2018-08-20T22:58:20.089Z,2.65
2018-08-20T23:00:55.064Z,2.30
2018-08-20T23:03:30.337Z,3.20
2018-08-20T23:06:04.988Z,2.40
2018-08-20T23:08:40.094Z,2.90
2018-08-20T23:11:16.733Z,2.52
2018-08-20T23:13:51.698Z,2.60
2018-08-20T23:16:26.534Z,2.77
2018-08-20T23:19:01.347Z,2.60
2018-08-20T23:21:46.169Z,2.58
2018-08-20T23:24:20.830Z,2.80
2018-08-20T23:26:56.693Z,2.90
2018-08-20T23:29:31.762Z,2.95
2018-08-20T23:32:06.578Z,2.80
2018-08-20T23:34:41.775Z,2.77
2018-08-20T23:37:16.412Z,2.95
2018-08-20T23:39:51.207Z,2.60
2018-08-20T23:42:26.108Z,3.75
2018-08-20T23:45:00.905Z,3.72
2018-08-20T23:47:35.753Z,3.22
2018-08-20T23:50:10.556Z,3.20
2018-08-20T23:52:45.312Z,3.40
2018-08-20T23:55:20.184Z,2.62
2018-08-20T23:57:55.297Z,3.30
